VIR8Y KLAX-EGLL
Flight info
| Callsign | VIR8Y |
|---|---|
| Flight time | N/A |
| Altitude | 33000 |
| Route | OSHNN1 BEALE J146 DVC DCT HBU DCT DVV J114 SNY DCT GILTE DCT HML/N0470F350 DCT YRL DCT 55N087W 58N080W 62N070W/M081F350 DCT EPMAN DCT 67N050W/M081F370 67N040W 65N030W 62N020W DCT ERAKA/N0460F370 DCT ETSOM DCT AKOMU DCT VAMEB DCT NUGRA |
| Aircraft | A346/H-SDE2E3FGHIJ3J4J5M1RWXY/LB1D1 |
Departure
| Time | 2026-04-23 20:57 |
|---|---|
| Airport | Los Angeles International Airport (KLAX) |
Arrival
| Time | N/A |
|---|---|
| Airport | London Heathrow Airport (EGLL) |
| Time | Latitude | Longitude | Altitude | Speed | Heading |
|---|---|---|---|---|---|
| 2026-04-23 20:13 | 33.94461 | -118.41150 | 131 ft | 0 kts | 84° |
| 2026-04-23 20:44 | 33.94461 | -118.41151 | 131 ft | 0 kts | 84° |
| 2026-04-23 20:44 | 33.94459 | -118.41165 | 131 ft | 2 kts | 84° |
| 2026-04-23 20:44 | 33.94458 | -118.41183 | 131 ft | 2 kts | 84° |
| 2026-04-23 20:45 | 33.94457 | -118.41201 | 131 ft | 2 kts | 98° |
| 2026-04-23 20:45 | 33.94461 | -118.41219 | 131 ft | 2 kts | 116° |
| 2026-04-23 20:45 | 33.94470 | -118.41235 | 131 ft | 2 kts | 131° |
| 2026-04-23 20:45 | 33.94481 | -118.41247 | 131 ft | 2 kts | 146° |
| 2026-04-23 20:46 | 33.94494 | -118.41255 | 131 ft | 2 kts | 161° |
| 2026-04-23 20:46 | 33.94505 | -118.41259 | 130 ft | 0 kts | 173° |
| 2026-04-23 20:46 | 33.94510 | -118.41260 | 131 ft | 0 kts | 174° |
| 2026-04-23 20:48 | 33.94509 | -118.41260 | 130 ft | 0 kts | 174° |
| 2026-04-23 20:48 | 33.94490 | -118.41257 | 130 ft | 5 kts | 173° |
| 2026-04-23 20:48 | 33.94441 | -118.41249 | 131 ft | 9 kts | 173° |
| 2026-04-23 20:49 | 33.94356 | -118.41236 | 131 ft | 14 kts | 173° |
| 2026-04-23 20:49 | 33.94244 | -118.41220 | 131 ft | 17 kts | 173° |
| 2026-04-23 20:49 | 33.94122 | -118.41202 | 132 ft | 17 kts | 173° |
| 2026-04-23 20:49 | 33.94000 | -118.41184 | 133 ft | 17 kts | 173° |
| 2026-04-23 20:50 | 33.93880 | -118.41167 | 133 ft | 15 kts | 173° |
| 2026-04-23 20:50 | 33.93805 | -118.41157 | 134 ft | 9 kts | 173° |
| 2026-04-23 20:50 | 33.93768 | -118.41100 | 134 ft | 10 kts | 89° |
| 2026-04-23 20:50 | 33.93777 | -118.40998 | 134 ft | 15 kts | 83° |
| 2026-04-23 20:51 | 33.93794 | -118.40837 | 134 ft | 21 kts | 83° |
| 2026-04-23 20:51 | 33.93813 | -118.40655 | 133 ft | 22 kts | 83° |
| 2026-04-23 20:51 | 33.93831 | -118.40467 | 132 ft | 23 kts | 83° |
| 2026-04-23 20:51 | 33.93852 | -118.40266 | 129 ft | 24 kts | 83° |
| 2026-04-23 20:52 | 33.93873 | -118.40054 | 126 ft | 26 kts | 83° |
| 2026-04-23 20:52 | 33.93896 | -118.39835 | 123 ft | 22 kts | 83° |
| 2026-04-23 20:52 | 33.93915 | -118.39651 | 121 ft | 21 kts | 83° |
| 2026-04-23 20:52 | 33.93934 | -118.39465 | 118 ft | 23 kts | 83° |
| 2026-04-23 20:53 | 33.93954 | -118.39269 | 117 ft | 24 kts | 83° |
| 2026-04-23 20:53 | 33.93975 | -118.39062 | 115 ft | 25 kts | 83° |
| 2026-04-23 20:53 | 33.93996 | -118.38848 | 114 ft | 26 kts | 83° |
| 2026-04-23 20:53 | 33.94019 | -118.38629 | 113 ft | 26 kts | 83° |
| 2026-04-23 20:54 | 33.94043 | -118.38403 | 112 ft | 27 kts | 83° |
| 2026-04-23 20:54 | 33.94065 | -118.38179 | 111 ft | 21 kts | 83° |
| 2026-04-23 20:54 | 33.94075 | -118.38086 | 110 ft | 8 kts | 82° |
| 2026-04-23 20:54 | 33.94060 | -118.38019 | 110 ft | 9 kts | 145° |
| 2026-04-23 20:55 | 33.94012 | -118.38003 | 110 ft | 5 kts | 185° |
| 2026-04-23 20:55 | 33.93985 | -118.38032 | 110 ft | 6 kts | 253° |
| 2026-04-23 20:55 | 33.93980 | -118.38075 | 111 ft | 0 kts | 263° |
| 2026-04-23 20:55 | 33.93973 | -118.38138 | 111 ft | 31 kts | 263° |
| 2026-04-23 20:56 | 33.93917 | -118.38677 | 113 ft | 97 kts | 263° |
| 2026-04-23 20:56 | 33.93809 | -118.39738 | 122 ft | 152 kts | 263° |
| 2026-04-23 20:56 | 33.93663 | -118.41177 | 221 ft | 187 kts | 263° |
| 2026-04-23 20:56 | 33.93497 | -118.42759 | 708 ft | 188 kts | 262° |
| 2026-04-23 20:57 | 33.93333 | -118.44335 | 1239 ft | 192 kts | 262° |
| 2026-04-23 20:57 | 33.93018 | -118.45940 | 1811 ft | 193 kts | 246° |
| 2026-04-23 20:57 | 33.92280 | -118.47300 | 2116 ft | 200 kts | 233° |
| 2026-04-23 20:57 | 33.91371 | -118.48676 | 2360 ft | 213 kts | 232° |
| 2026-04-23 20:58 | 33.90378 | -118.50121 | 2584 ft | 228 kts | 231° |
| 2026-04-23 20:58 | 33.89303 | -118.51630 | 2893 ft | 243 kts | 230° |
| 2026-04-23 20:58 | 33.88147 | -118.53256 | 3225 ft | 257 kts | 230° |
| 2026-04-23 20:58 | 33.86933 | -118.54924 | 3595 ft | 270 kts | 223° |
| 2026-04-23 20:59 | 33.85242 | -118.56005 | 4076 ft | 278 kts | 189° |
| 2026-04-23 20:59 | 33.83287 | -118.55866 | 4682 ft | 280 kts | 166° |
| 2026-04-23 20:59 | 33.81387 | -118.55279 | 5267 ft | 282 kts | 167° |
| 2026-04-23 20:59 | 33.79456 | -118.54726 | 5823 ft | 286 kts | 167° |
| 2026-04-23 21:00 | 33.77526 | -118.53973 | 6343 ft | 289 kts | 147° |
| 2026-04-23 21:00 | 33.76125 | -118.52205 | 6871 ft | 291 kts | 116° |
| 2026-04-23 21:00 | 33.75371 | -118.49905 | 7453 ft | 292 kts | 108° |
| 2026-04-23 21:00 | 33.74718 | -118.47536 | 8007 ft | 295 kts | 109° |
| 2026-04-23 21:01 | 33.74022 | -118.45189 | 8556 ft | 298 kts | 110° |
| 2026-04-23 21:01 | 33.73268 | -118.42836 | 9086 ft | 300 kts | 111° |
| 2026-04-23 21:01 | 33.72477 | -118.40494 | 9598 ft | 301 kts | 112° |
| 2026-04-23 21:01 | 33.71658 | -118.38137 | 10093 ft | 303 kts | 112° |
| 2026-04-23 21:02 | 33.70816 | -118.35747 | 10433 ft | 311 kts | 112° |
| 2026-04-23 21:02 | 33.69927 | -118.33253 | 10666 ft | 324 kts | 112° |
| 2026-04-23 21:02 | 33.69011 | -118.30688 | 10896 ft | 336 kts | 112° |
| 2026-04-23 21:02 | 33.68055 | -118.28009 | 11132 ft | 349 kts | 111° |
| 2026-04-23 21:03 | 33.67065 | -118.25235 | 11369 ft | 362 kts | 111° |
| 2026-04-23 21:03 | 33.66212 | -118.22261 | 11576 ft | 373 kts | 97° |
| 2026-04-23 21:03 | 33.66266 | -118.19108 | 11789 ft | 382 kts | 76° |
| 2026-04-23 21:03 | 33.67265 | -118.16111 | 12007 ft | 389 kts | 55° |
| 2026-04-23 21:04 | 33.69096 | -118.13694 | 12311 ft | 392 kts | 35° |
| 2026-04-23 21:04 | 33.71333 | -118.11754 | 12778 ft | 396 kts | 33° |
| 2026-04-23 21:04 | 33.73585 | -118.09785 | 13271 ft | 400 kts | 33° |
| 2026-04-23 21:04 | 33.75824 | -118.07800 | 13749 ft | 403 kts | 33° |
| 2026-04-23 21:05 | 33.78115 | -118.05758 | 14205 ft | 407 kts | 33° |
| 2026-04-23 21:05 | 33.80386 | -118.03723 | 14644 ft | 411 kts | 33° |
| 2026-04-23 21:05 | 33.82698 | -118.01646 | 15083 ft | 415 kts | 33° |
| 2026-04-23 21:05 | 33.85035 | -117.99542 | 15520 ft | 419 kts | 33° |
| 2026-04-23 21:06 | 33.87377 | -117.97432 | 15948 ft | 423 kts | 33° |
| 2026-04-23 21:06 | 33.89751 | -117.95297 | 16375 ft | 426 kts | 33° |
| 2026-04-23 21:06 | 33.92121 | -117.93153 | 16796 ft | 430 kts | 33° |
| 2026-04-23 21:06 | 33.94558 | -117.90927 | 17224 ft | 434 kts | 33° |
| 2026-04-23 21:07 | 33.96975 | -117.88715 | 17647 ft | 438 kts | 33° |
| 2026-04-23 21:07 | 33.99420 | -117.86475 | 18068 ft | 442 kts | 33° |
| 2026-04-23 21:07 | 34.01880 | -117.84221 | 18476 ft | 445 kts | 33° |
| 2026-04-23 21:07 | 34.04334 | -117.81973 | 18875 ft | 448 kts | 33° |
| 2026-04-23 21:08 | 34.06823 | -117.79631 | 19258 ft | 453 kts | 36° |
| 2026-04-23 21:08 | 34.09161 | -117.77085 | 19669 ft | 458 kts | 40° |
| 2026-04-23 21:08 | 34.11366 | -117.74244 | 20065 ft | 464 kts | 46° |
| 2026-04-23 21:08 | 34.13427 | -117.71249 | 20424 ft | 467 kts | 47° |
| 2026-04-23 21:09 | 34.15520 | -117.68117 | 20814 ft | 469 kts | 47° |
| 2026-04-23 21:09 | 34.17567 | -117.65038 | 21217 ft | 471 kts | 47° |
| 2026-04-23 21:09 | 34.19609 | -117.61977 | 21604 ft | 473 kts | 47° |
| 2026-04-23 21:09 | 34.21701 | -117.58850 | 21990 ft | 476 kts | 47° |
| 2026-04-23 21:10 | 34.23793 | -117.55730 | 22398 ft | 478 kts | 47° |